createdAt,value
2018-09-19T00:03:43.662Z,100826.30
2018-09-19T00:08:47.206Z,100824.97
2018-09-19T00:13:50.795Z,100823.05
2018-09-19T00:18:54.901Z,100829.27
2018-09-19T00:23:58.648Z,100823.78
2018-09-19T00:29:02.344Z,100834.28
2018-09-19T00:34:06.002Z,100830.46
2018-09-19T00:39:10.341Z,100838.64
2018-09-19T00:44:15.165Z,100841.32
2018-09-19T00:49:19.415Z,100838.16
2018-09-19T00:54:22.934Z,100836.97
2018-09-19T00:59:26.590Z,100830.75
2018-09-19T01:04:30.513Z,100836.13
2018-09-19T01:09:34.531Z,100845.76
2018-09-19T01:14:38.124Z,100847.05
2018-09-19T01:19:41.717Z,100850.94
2018-09-19T01:24:45.315Z,100854.22
2018-09-19T01:29:49.065Z,100856.30
2018-09-19T01:34:52.860Z,100860.69
2018-09-19T01:39:56.422Z,100866.78
2018-09-19T01:44:59.985Z,100870.80
2018-09-19T01:50:03.678Z,100874.34
2018-09-19T01:55:07.227Z,100886.05
2018-09-19T02:00:11.547Z,100883.67
2018-09-19T02:05:15.247Z,100885.14
2018-09-19T02:10:18.790Z,100892.83
2018-09-19T02:15:22.287Z,100889.70
2018-09-19T02:20:25.825Z,100889.41
2018-09-19T02:25:29.471Z,100899.42
2018-09-19T02:30:33.289Z,100889.95
2018-09-19T02:35:36.807Z,100896.41
2018-09-19T02:40:40.830Z,100903.08
2018-09-19T02:45:44.393Z,100906.00
2018-09-19T02:50:47.920Z,100903.77
2018-09-19T02:55:51.651Z,100904.22
2018-09-19T03:00:55.161Z,100915.34
2018-09-19T03:05:58.899Z,100910.98
2018-09-19T03:11:07.172Z,100910.25
2018-09-19T03:16:10.728Z,100917.25
2018-09-19T03:21:14.297Z,100912.93
2018-09-19T03:26:17.829Z,100914.97
2018-09-19T03:31:21.430Z,100911.39
2018-09-19T03:36:24.963Z,100911.48
2018-09-19T03:41:28.527Z,100909.36
2018-09-19T03:46:32.130Z,100910.25
2018-09-19T03:51:35.717Z,100905.76
2018-09-19T03:56:39.260Z,100909.44
2018-09-19T04:01:42.965Z,100891.89
2018-09-19T04:06:46.611Z,100904.99
2018-09-19T04:11:50.170Z,100899.14
2018-09-19T04:16:53.943Z,100904.70
2018-09-19T04:21:57.619Z,100908.98
2018-09-19T04:27:01.154Z,100904.14
2018-09-19T04:32:04.723Z,100909.32
2018-09-19T04:37:08.309Z,100911.61
2018-09-19T04:42:11.927Z,100913.45
2018-09-19T04:47:16.371Z,100918.05
2018-09-19T04:52:19.895Z,100928.75
2018-09-19T04:57:23.425Z,100935.28
2018-09-19T05:02:26.983Z,100930.88
2018-09-19T05:07:30.692Z,100930.69
2018-09-19T05:12:34.292Z,100938.34
2018-09-19T05:17:37.899Z,100926.16
2018-09-19T05:22:41.549Z,100935.63
2018-09-19T05:27:45.114Z,100926.77
2018-09-19T05:32:48.745Z,100921.09
2018-09-19T05:37:52.379Z,100929.65
2018-09-19T05:42:55.997Z,100927.88
2018-09-19T05:47:59.683Z,100939.84
2018-09-19T05:53:04.823Z,100950.89
2018-09-19T05:58:08.426Z,100950.45
2018-09-19T06:03:12.068Z,100946.78
2018-09-19T06:08:15.645Z,100946.36
2018-09-19T06:13:19.283Z,100959.69
2018-09-19T06:18:23.041Z,100960.05
2018-09-19T06:23:26.909Z,100959.17
2018-09-19T06:28:37.128Z,100955.02
2018-09-19T06:33:40.756Z,100943.69
2018-09-19T06:38:44.296Z,100931.90
2018-09-19T06:43:48.075Z,100933.98
2018-09-19T06:48:51.749Z,100928.05
2018-09-19T06:53:55.409Z,100925.52
2018-09-19T06:58:58.958Z,100923.38
2018-09-19T07:04:02.623Z,100921.50
2018-09-19T07:09:07.668Z,100926.68
2018-09-19T07:14:11.438Z,100936.30
2018-09-19T07:19:15.074Z,100926.92
2018-09-19T07:24:18.759Z,100917.95
2018-09-19T07:29:22.323Z,100917.37
2018-09-19T07:34:25.939Z,100909.06
2018-09-19T07:39:29.533Z,100900.88
2018-09-19T07:44:33.178Z,100907.42
2018-09-19T07:49:36.769Z,100911.56
2018-09-19T07:54:40.337Z,100922.60
2018-09-19T07:59:43.819Z,100918.97
2018-09-19T08:04:47.360Z,100927.99
2018-09-19T08:09:50.933Z,100925.34
2018-09-19T08:14:54.482Z,100914.17
2018-09-19T08:19:58.057Z,100912.96
2018-09-19T08:25:01.683Z,100921.73
2018-09-19T08:30:08.523Z,100924.28
2018-09-19T08:35:12.188Z,100926.52
2018-09-19T08:40:15.688Z,100934.27
2018-09-19T08:45:19.301Z,100935.13
2018-09-19T08:50:22.861Z,100924.42
2018-09-19T08:55:27.032Z,100925.70
2018-09-19T09:00:30.601Z,100918.89
2018-09-19T09:05:34.459Z,100920.34
2018-09-19T09:10:38.044Z,100935.88
2018-09-19T09:15:41.589Z,100930.66
2018-09-19T09:20:45.226Z,100915.63
2018-09-19T09:25:48.724Z,100902.22
2018-09-19T09:30:59.489Z,100893.37
2018-09-19T09:36:03.083Z,100887.75
2018-09-19T09:41:07.105Z,100874.91
2018-09-19T09:46:10.867Z,100873.42
2018-09-19T09:51:14.512Z,100876.47
2018-09-19T09:56:18.126Z,100872.76
2018-09-19T10:01:22.505Z,100872.64
2018-09-19T10:06:26.175Z,100862.70
2018-09-19T10:11:29.662Z,100864.89
2018-09-19T10:16:33.171Z,100861.93
2018-09-19T10:21:36.726Z,100853.92
2018-09-19T10:26:40.198Z,100845.14
2018-09-19T10:31:43.697Z,100844.80
2018-09-19T10:36:47.390Z,100837.80
2018-09-19T10:41:51.390Z,100839.58
2018-09-19T10:46:55.050Z,100832.22
2018-09-19T10:51:58.729Z,100817.04
2018-09-19T10:57:02.479Z,100810.52
2018-09-19T11:02:06.111Z,100808.48
2018-09-19T11:07:17.394Z,100800.97
2018-09-19T11:12:20.975Z,100805.27
2018-09-19T11:17:24.820Z,100796.37
2018-09-19T11:22:28.411Z,100793.59
2018-09-19T11:27:32.072Z,100791.73
2018-09-19T11:32:35.617Z,100793.80
2018-09-19T11:37:39.195Z,100799.20
2018-09-19T11:42:42.755Z,100803.17
2018-09-19T11:47:46.332Z,100791.39
2018-09-19T11:52:50.037Z,100794.21
2018-09-19T11:57:53.617Z,100791.75
2018-09-19T12:02:57.191Z,100792.45
2018-09-19T12:08:00.719Z,100793.93
2018-09-19T12:13:04.586Z,100800.84
2018-09-19T12:18:08.083Z,100802.68
2018-09-19T12:23:11.680Z,100800.49
2018-09-19T12:28:15.235Z,100795.28
2018-09-19T12:33:18.757Z,100792.12
2018-09-19T12:38:22.594Z,100785.25
2018-09-19T12:43:26.173Z,100775.70
2018-09-19T12:48:29.733Z,100785.38
2018-09-19T12:53:33.229Z,100772.25
2018-09-19T12:58:37.175Z,100766.29
2018-09-19T13:03:40.875Z,100757.42
2018-09-19T13:08:44.651Z,100765.45
2018-09-19T13:13:48.280Z,100760.41
2018-09-19T13:18:51.946Z,100756.51
2018-09-19T13:23:55.638Z,100747.91
2018-09-19T13:28:59.457Z,100742.16
2018-09-19T13:34:03.096Z,100745.23
2018-09-19T13:39:09.603Z,100733.06
2018-09-19T13:44:20.646Z,100735.09
2018-09-19T13:49:27.894Z,100733.34
2018-09-19T13:54:31.450Z,100727.88
2018-09-19T13:59:35.063Z,100725.98
2018-09-19T14:04:38.677Z,100724.86
2018-09-19T14:09:42.355Z,100713.83
2018-09-19T14:14:48.741Z,100708.18
2018-09-19T14:19:52.585Z,100699.69
2018-09-19T14:24:56.691Z,100704.06
2018-09-19T14:30:00.281Z,100691.44
2018-09-19T14:35:03.829Z,100683.06
2018-09-19T14:40:07.518Z,100678.78
2018-09-19T14:45:11.039Z,100680.42
2018-09-19T14:50:14.636Z,100675.44
2018-09-19T14:55:18.163Z,100669.41
2018-09-19T15:00:28.764Z,100668.70
2018-09-19T15:05:32.398Z,100665.45
2018-09-19T15:10:36.009Z,100660.19
2018-09-19T15:15:39.720Z,100669.77
2018-09-19T15:20:43.271Z,100670.08
2018-09-19T15:25:47.019Z,100665.31
2018-09-19T15:30:50.934Z,100666.77
2018-09-19T15:35:54.580Z,100678.13
2018-09-19T15:40:58.333Z,100664.36
2018-09-19T15:46:01.951Z,100660.05
2018-09-19T15:51:05.695Z,100664.95
2018-09-19T15:56:09.572Z,100671.44
2018-09-19T16:01:13.174Z,100674.06
2018-09-19T16:06:16.811Z,100676.88
2018-09-19T16:11:20.420Z,100679.16
2018-09-19T16:16:23.957Z,100687.69
2018-09-19T16:21:27.475Z,100695.48
2018-09-19T16:26:31.109Z,100696.12
2018-09-19T16:31:34.637Z,100687.13
2018-09-19T16:36:38.443Z,100695.91
2018-09-19T16:41:42.109Z,100695.91
2018-09-19T16:46:45.777Z,100697.62
2018-09-19T16:51:55.534Z,100703.51
2018-09-19T16:56:59.086Z,100706.67
2018-09-19T17:02:02.649Z,100704.48
2018-09-19T17:07:06.251Z,100704.80
2018-09-19T17:12:09.761Z,100702.84
2018-09-19T17:17:13.336Z,100704.64
2018-09-19T17:22:16.926Z,100713.73
2018-09-19T17:27:21.667Z,100723.17
2018-09-19T17:32:25.293Z,100730.39
2018-09-19T17:37:28.887Z,100727.57
2018-09-19T17:42:32.507Z,100737.11
2018-09-19T17:47:36.535Z,100743.36
2018-09-19T17:52:40.178Z,100743.90
2018-09-19T17:57:43.802Z,100748.40
2018-09-19T18:02:47.583Z,100748.68
2018-09-19T18:07:51.217Z,100756.65
2018-09-19T18:12:54.805Z,100758.48
2018-09-19T18:17:58.395Z,100767.90
2018-09-19T18:23:02.096Z,100768.84
2018-09-19T18:28:05.861Z,100782.42
2018-09-19T18:33:09.508Z,100786.37
2018-09-19T18:38:13.147Z,100796.61
2018-09-19T18:43:16.699Z,100800.59
2018-09-19T18:48:20.427Z,100811.70
2018-09-19T18:53:24.108Z,100818.26
2018-09-19T18:58:27.913Z,100827.53
2018-09-19T19:03:32.486Z,100841.21
2018-09-19T19:08:36.134Z,100838.69
2018-09-19T19:13:39.768Z,100847.83
2018-09-19T19:18:43.917Z,100857.34
2018-09-19T19:23:47.479Z,100868.30
2018-09-19T19:28:55.204Z,100871.89
2018-09-19T19:33:58.762Z,100875.67
2018-09-19T19:39:02.551Z,100886.02
2018-09-19T19:44:06.279Z,100890.00
2018-09-19T19:49:09.895Z,100898.45
2018-09-19T19:54:13.437Z,100889.48
2018-09-19T19:59:17.046Z,100902.84
2018-09-19T20:04:20.598Z,100906.22
2018-09-19T20:09:24.312Z,100915.88
2018-09-19T20:14:27.949Z,100917.88
2018-09-19T20:19:31.566Z,100915.37
2018-09-19T20:24:35.177Z,100914.43
2018-09-19T20:29:38.734Z,100921.13
2018-09-19T20:34:42.324Z,100929.59
2018-09-19T20:39:45.853Z,100933.34
2018-09-19T20:44:49.394Z,100932.22
2018-09-19T20:49:52.940Z,100932.91
2018-09-19T20:54:57.515Z,100936.91
2018-09-19T21:00:01.802Z,100947.30
2018-09-19T21:05:05.471Z,100946.88
2018-09-19T21:10:09.041Z,100956.84
2018-09-19T21:15:12.664Z,100963.23
2018-09-19T21:20:16.237Z,100957.18
2018-09-19T21:25:20.080Z,100963.02
2018-09-19T21:30:32.084Z,100966.52
2018-09-19T21:35:35.634Z,100971.66
2018-09-19T21:40:39.289Z,100972.31
2018-09-19T21:45:42.958Z,100965.85
2018-09-19T21:50:47.216Z,100983.20
2018-09-19T21:55:50.839Z,100982.66
2018-09-19T22:00:59.706Z,100992.06
2018-09-19T22:06:03.725Z,100987.89
2018-09-19T22:11:07.327Z,100989.31
2018-09-19T22:16:10.946Z,100991.91
2018-09-19T22:21:14.609Z,100990.07
2018-09-19T22:26:18.118Z,100987.22
2018-09-19T22:31:21.849Z,100989.47
2018-09-19T22:36:25.413Z,100986.23
2018-09-19T22:41:29.038Z,100985.34
2018-09-19T22:46:32.596Z,100981.23
2018-09-19T22:51:36.230Z,100985.34
2018-09-19T22:56:39.784Z,100985.05
2018-09-19T23:01:43.349Z,100979.91
2018-09-19T23:06:48.620Z,100976.05
2018-09-19T23:11:52.197Z,100971.94
2018-09-19T23:16:55.962Z,100975.11
2018-09-19T23:21:59.574Z,100976.28
2018-09-19T23:27:03.144Z,100970.78
2018-09-19T23:32:06.802Z,100985.31
2018-09-19T23:37:10.426Z,100973.70
2018-09-19T23:42:14.126Z,100971.02
2018-09-19T23:47:17.741Z,100961.48
2018-09-19T23:52:21.273Z,100963.27
2018-09-19T23:57:24.898Z,100966.58
